Time;durP1;ratioP1;P1;durP2;ratioP2;P2;SDS_P1;SDS_P2;PMS_P1;PMS_P2;Temp;Humidity;BMP_temperature;BMP_pressure;BME280_temperature;BME280_humidity;BME280_pressure;Samples;Min_cycle;Max_cycle;Signal;HPM_P1;HPM_P2
2021/03/14 00:00:46;;;;;;;1.55;1.00;;;2.60;99.90;;;;;;5084590;28;20578;-72
2021/03/14 00:03:15;;;;;;;2.28;1.10;;;2.60;99.90;;;;;;5085363;28;20574;-72
2021/03/14 00:05:42;;;;;;;1.00;0.90;;;2.60;99.90;;;;;;5085573;28;20203;-73
2021/03/14 00:08:09;;;;;;;1.40;1.30;;;2.60;99.90;;;;;;5085788;28;20533;-72
2021/03/14 00:10:37;;;;;;;2.58;1.60;;;2.60;99.90;;;;;;5084555;28;20564;-72
2021/03/14 00:13:05;;;;;;;2.15;1.10;;;2.70;99.90;;;;;;5085371;28;20199;-72
2021/03/14 00:15:31;;;;;;;1.30;0.90;;;2.70;99.90;;;;;;5085388;28;20595;-72
2021/03/14 00:17:57;;;;;;;1.85;0.90;;;2.70;99.90;;;;;;5085163;28;20223;-72
2021/03/14 00:20:24;;;;;;;1.33;0.93;;;2.70;99.90;;;;;;5084547;28;20586;-72
2021/03/14 00:22:51;;;;;;;1.77;1.00;;;2.80;99.90;;;;;;5084659;28;20241;-72
2021/03/14 00:25:17;;;;;;;1.13;0.90;;;2.80;99.90;;;;;;5084890;28;20211;-72
2021/03/14 00:27:44;;;;;;;1.40;1.10;;;2.90;99.90;;;;;;5084734;28;20743;-73
2021/03/14 00:30:13;;;;;;;1.10;0.82;;;2.90;99.90;;;;;;5084181;28;20199;-73
2021/03/14 00:32:40;;;;;;;1.08;0.90;;;3.00;99.90;;;;;;5083940;28;20203;-73
2021/03/14 00:35:08;;;;;;;1.08;0.80;;;3.00;99.90;;;;;;5077613;28;20216;-73
2021/03/14 00:37:35;;;;;;;1.42;1.00;;;3.00;99.90;;;;;;5082822;28;20206;-72
2021/03/14 00:40:01;;;;;;;0.95;0.82;;;3.00;99.90;;;;;;5081186;28;20207;-72
2021/03/14 00:42:28;;;;;;;1.20;1.00;;;3.00;99.90;;;;;;5083105;28;20241;-72
2021/03/14 00:44:54;;;;;;;1.05;0.82;;;3.10;99.90;;;;;;5071710;28;20205;-72
2021/03/14 00:47:20;;;;;;;0.93;0.82;;;3.10;99.90;;;;;;5065121;28;20211;-72
2021/03/14 00:49:46;;;;;;;0.82;0.70;;;3.00;99.90;;;;;;5064372;28;20748;-72
2021/03/14 00:52:12;;;;;;;1.00;0.80;;;2.90;99.90;;;;;;5065299;28;20414;-74
2021/03/14 00:54:39;;;;;;;1.80;0.90;;;2.80;99.90;;;;;;5065161;28;20641;-72
2021/03/14 00:57:06;;;;;;;0.80;0.80;;;2.70;99.90;;;;;;5065340;28;20216;-72
2021/03/14 00:59:32;;;;;;;0.90;0.80;;;2.60;99.90;;;;;;5063224;28;20204;-72
2021/03/14 01:01:59;;;;;;;0.80;0.75;;;2.60;99.90;;;;;;5064330;28;20253;-72
2021/03/14 01:04:26;;;;;;;0.93;0.80;;;2.60;99.90;;;;;;5067014;28;20192;-72
2021/03/14 01:06:52;;;;;;;0.95;0.80;;;2.50;99.90;;;;;;5079938;28;20192;-71
2021/03/14 01:09:18;;;;;;;0.90;0.80;;;2.50;99.90;;;;;;5064873;28;20261;-72
2021/03/14 01:11:45;;;;;;;1.13;0.95;;;2.50;99.90;;;;;;5065274;28;20756;-72
2021/03/14 01:14:12;;;;;;;1.10;0.90;;;2.40;99.90;;;;;;5065195;28;20235;-71
2021/03/14 01:16:38;;;;;;;0.90;0.80;;;2.30;99.90;;;;;;5065142;28;20215;-72
2021/03/14 01:19:04;;;;;;;0.80;0.70;;;2.30;99.90;;;;;;5064669;28;20536;-73
2021/03/14 01:21:32;;;;;;;1.00;0.80;;;2.30;99.90;;;;;;5066778;28;20232;-72
2021/03/14 01:23:58;;;;;;;1.25;0.90;;;2.30;99.90;;;;;;5069177;28;20207;-73
2021/03/14 01:26:24;;;;;;;1.20;1.02;;;2.30;99.90;;;;;;5070240;28;20471;-72
2021/03/14 01:28:52;;;;;;;1.10;1.00;;;2.30;99.90;;;;;;5069171;28;20407;-72
2021/03/14 01:31:18;;;;;;;1.65;0.85;;;2.30;99.90;;;;;;5070582;28;20273;-72
2021/03/14 01:33:45;;;;;;;2.17;0.82;;;2.30;99.90;;;;;;5121508;22;20239;-92
2021/03/14 01:36:11;;;;;;;1.10;1.00;;;2.30;99.90;;;;;;5083663;28;20181;-93
2021/03/14 01:38:38;;;;;;;1.10;0.90;;;2.30;99.90;;;;;;5082134;28;20196;-92
2021/03/14 01:41:06;;;;;;;1.95;0.90;;;2.30;99.90;;;;;;5078594;28;20313;-93
2021/03/14 01:43:35;;;;;;;1.70;0.90;;;2.30;99.90;;;;;;5072923;28;20317;-93
2021/03/14 01:46:04;;;;;;;1.60;1.00;;;2.30;99.90;;;;;;5061973;28;20200;-91
2021/03/14 01:48:32;;;;;;;1.27;0.90;;;2.30;99.90;;;;;;5075731;28;20239;-92
2021/03/14 01:50:59;;;;;;;0.98;0.80;;;2.30;99.90;;;;;;5076254;28;20250;-92
2021/03/14 01:53:26;;;;;;;1.00;0.80;;;2.40;99.90;;;;;;5075441;28;21072;-92
2021/03/14 01:55:54;;;;;;;1.40;0.80;;;2.40;99.90;;;;;;5074449;28;20196;-92
2021/03/14 01:58:23;;;;;;;0.70;0.60;;;2.50;99.90;;;;;;5074895;28;20257;-92
2021/03/14 02:00:52;;;;;;;1.15;0.80;;;2.50;99.90;;;;;;5074684;28;20200;-92
2021/03/14 02:03:20;;;;;;;0.90;0.75;;;2.60;99.90;;;;;;5074417;28;20254;-92
2021/03/14 02:05:51;;;;;;;1.00;0.80;;;2.50;99.90;;;;;;5074459;28;20288;-92
2021/03/14 02:08:53;;;;;;;;;;;;;;;;;;;;;
2021/03/14 02:14:39;;;;;;;0.80;0.70;;;2.50;99.90;;;;;;4977861;28;20218;-92
2021/03/14 02:17:09;;;;;;;0.80;0.70;;;2.60;99.90;;;;;;5074611;28;20287;-92
2021/03/14 02:19:40;;;;;;;0.80;0.60;;;2.60;99.90;;;;;;5074193;28;20200;-92
2021/03/14 02:22:07;;;;;;;0.90;0.80;;;2.60;99.90;;;;;;5074244;28;20315;-92
2021/03/14 02:24:45;;;;;;;0.80;0.70;;;2.50;99.90;;;;;;5074245;28;20354;-92
2021/03/14 02:27:13;;;;;;;2.15;1.00;;;2.50;99.90;;;;;;5074766;28;20212;-92
2021/03/14 02:29:42;;;;;;;1.00;0.82;;;2.60;99.90;;;;;;5072560;28;20242;-91
2021/03/14 02:32:11;;;;;;;1.00;0.88;;;2.60;99.90;;;;;;5073063;28;20205;-92
2021/03/14 02:34:42;;;;;;;0.80;0.70;;;2.60;99.90;;;;;;5073208;28;20228;-92
2021/03/14 02:37:22;;;;;;;0.85;0.80;;;2.60;99.90;;;;;;5073923;28;20254;-92
2021/03/14 02:39:52;;;;;;;2.42;0.90;;;2.60;99.90;;;;;;5073651;28;20212;-92
2021/03/14 02:42:20;;;;;;;1.10;1.00;;;2.60;99.90;;;;;;5074976;28;20208;-91
2021/03/14 02:44:50;;;;;;;1.00;0.70;;;2.60;99.90;;;;;;5073767;28;20238;-92
2021/03/14 02:47:20;;;;;;;1.10;0.80;;;2.50;99.90;;;;;;5073917;28;20204;-92
2021/03/14 02:49:48;;;;;;;1.02;0.90;;;2.50;99.90;;;;;;5073507;28;20203;-92
2021/03/14 02:52:16;;;;;;;1.25;0.80;;;2.50;99.90;;;;;;5074707;28;20238;-92
2021/03/14 02:54:43;;;;;;;1.70;0.90;;;2.50;99.90;;;;;;5073636;28;20224;-91
2021/03/14 02:57:10;;;;;;;1.00;0.90;;;2.50;99.90;;;;;;5073113;28;20288;-93
2021/03/14 02:59:40;;;;;;;0.98;0.88;;;2.40;99.90;;;;;;5073255;28;20201;-92
2021/03/14 03:02:07;;;;;;;1.60;1.00;;;2.40;99.90;;;;;;5073030;28;20291;-92
2021/03/14 03:04:34;;;;;;;1.10;1.00;;;2.40;99.90;;;;;;5072993;28;20281;-92
2021/03/14 03:07:01;;;;;;;0.80;0.75;;;2.30;99.90;;;;;;5072885;28;20208;-92
2021/03/14 03:09:28;;;;;;;1.20;0.90;;;2.40;99.90;;;;;;5072669;28;20240;-92
2021/03/14 03:11:56;;;;;;;1.20;1.10;;;2.30;99.90;;;;;;5072861;28;20299;-92
2021/03/14 03:14:28;;;;;;;2.95;1.10;;;2.30;99.90;;;;;;5072259;28;20236;-92
2021/03/14 03:16:57;;;;;;;1.00;0.90;;;2.30;99.90;;;;;;5073483;28;20790;-92
2021/03/14 03:19:24;;;;;;;1.17;0.98;;;2.40;99.90;;;;;;5072136;28;20216;-92
2021/03/14 03:21:52;;;;;;;1.10;1.00;;;2.30;99.90;;;;;;5072828;28;20200;-91
2021/03/14 03:24:19;;;;;;;1.27;1.02;;;2.30;99.90;;;;;;5072510;28;20232;-92
2021/03/14 03:26:48;;;;;;;1.40;1.17;;;2.30;99.90;;;;;;5072164;28;20224;-92
2021/03/14 03:29:16;;;;;;;1.63;1.30;;;2.20;99.90;;;;;;5072276;28;20215;-92
2021/03/14 03:31:43;;;;;;;1.20;1.10;;;2.20;99.90;;;;;;5072935;28;20658;-92
2021/03/14 03:34:12;;;;;;;1.30;1.20;;;2.20;99.90;;;;;;5072999;28;20311;-91
2021/03/14 03:36:39;;;;;;;1.15;1.00;;;2.10;99.90;;;;;;5073299;28;20287;-92
2021/03/14 03:39:08;;;;;;;1.40;1.05;;;2.10;99.90;;;;;;5086992;28;20199;-91
2021/03/14 03:41:36;;;;;;;1.40;0.95;;;2.10;99.90;;;;;;5076528;28;20220;-93
2021/03/14 03:44:05;;;;;;;1.20;1.00;;;2.10;99.90;;;;;;5071748;28;20278;-92
2021/03/14 03:46:33;;;;;;;1.40;1.13;;;2.10;99.90;;;;;;5072757;28;20204;-92
2021/03/14 03:49:46;;;;;;;1.30;1.15;;;2.10;99.90;;;;;;5072447;28;20253;-92
2021/03/14 03:52:16;;;;;;;1.10;1.00;;;2.10;99.90;;;;;;5008666;28;20679;-91
2021/03/14 03:54:45;;;;;;;1.70;1.60;;;2.20;99.90;;;;;;5065903;28;20314;-92
2021/03/14 03:57:12;;;;;;;1.85;1.25;;;2.20;99.90;;;;;;5072745;28;20295;-92
2021/03/14 04:05:10;;;;;;;1.27;1.17;;;2.10;99.90;;;;;;5112778;22;20230;-73
2021/03/14 04:07:39;;;;;;;1.25;0.93;;;2.10;99.90;;;;;;5109143;28;20199;-73
2021/03/14 04:10:09;;;;;;;1.33;1.08;;;2.10;99.90;;;;;;5108883;28;20199;-72
2021/03/14 04:12:36;;;;;;;1.20;1.10;;;2.10;99.90;;;;;;5089026;28;20662;-73
2021/03/14 04:15:04;;;;;;;1.33;1.20;;;2.10;99.90;;;;;;5088846;28;20219;-72
2021/03/14 04:17:31;;;;;;;1.45;1.35;;;2.10;99.90;;;;;;5089313;28;20774;-73
2021/03/14 04:20:00;;;;;;;1.20;1.10;;;2.20;99.90;;;;;;5088671;28;20348;-73
2021/03/14 04:22:27;;;;;;;1.15;1.05;;;2.20;99.90;;;;;;5088765;28;20273;-72
2021/03/14 04:24:57;;;;;;;1.90;1.40;;;2.20;99.90;;;;;;5089081;28;20203;-73
2021/03/14 04:27:23;;;;;;;1.40;1.30;;;2.10;99.90;;;;;;5088434;28;20207;-72
2021/03/14 04:29:51;;;;;;;2.42;1.20;;;2.10;99.90;;;;;;5088307;28;20208;-73
2021/03/14 04:32:18;;;;;;;1.15;1.05;;;2.10;99.90;;;;;;5088384;28;20226;-72
2021/03/14 04:34:46;;;;;;;1.30;1.20;;;2.10;99.90;;;;;;5088803;28;20296;-73
2021/03/14 04:37:13;;;;;;;1.52;1.42;;;2.10;99.90;;;;;;5088616;28;20697;-72
2021/03/14 04:39:40;;;;;;;0.80;0.80;;;2.10;99.90;;;;;;5088107;28;20203;-72
2021/03/14 04:42:08;;;;;;;1.65;1.20;;;2.10;99.90;;;;;;5088717;28;20223;-73
2021/03/14 04:44:35;;;;;;;1.80;1.40;;;2.10;99.90;;;;;;5088228;28;20776;-72
2021/03/14 04:47:02;;;;;;;1.10;1.00;;;2.10;99.90;;;;;;5088851;28;20196;-72
2021/03/14 04:49:29;;;;;;;1.88;1.10;;;2.00;99.90;;;;;;5087952;28;20203;-72
2021/03/14 04:51:56;;;;;;;1.35;1.25;;;2.10;99.90;;;;;;5088486;28;20238;-72
2021/03/14 04:54:23;;;;;;;1.48;1.38;;;2.10;99.90;;;;;;5088266;28;20249;-72
2021/03/14 04:56:50;;;;;;;1.58;1.20;;;2.10;99.90;;;;;;5090368;28;20203;-72
2021/03/14 04:59:18;;;;;;;1.52;1.10;;;2.10;99.90;;;;;;5091819;28;20252;-72
2021/03/14 05:01:45;;;;;;;1.20;1.10;;;2.20;99.90;;;;;;5092235;28;20228;-72
2021/03/14 05:04:14;;;;;;;1.70;1.23;;;2.10;99.90;;;;;;5091718;28;20666;-72
2021/03/14 05:06:42;;;;;;;3.17;1.10;;;2.10;99.90;;;;;;5092301;28;20207;-73
2021/03/14 05:09:12;;;;;;;1.10;1.00;;;2.10;99.90;;;;;;5091524;28;20200;-72
2021/03/14 05:11:40;;;;;;;1.10;0.90;;;2.10;99.90;;;;;;5091953;28;20219;-72
2021/03/14 05:14:09;;;;;;;1.00;0.90;;;2.10;99.90;;;;;;5092015;28;20598;-73
2021/03/14 05:16:37;;;;;;;1.42;0.98;;;2.10;99.90;;;;;;5092175;28;20200;-72
2021/03/14 05:19:04;;;;;;;3.63;1.25;;;2.10;99.90;;;;;;5091798;28;20204;-72
2021/03/14 05:21:31;;;;;;;1.10;1.00;;;2.00;99.90;;;;;;5091787;28;20755;-72
2021/03/14 05:23:58;;;;;;;1.52;1.13;;;2.00;99.90;;;;;;5092103;28;20204;-73
2021/03/14 05:26:25;;;;;;;1.02;0.90;;;2.00;99.90;;;;;;5091742;28;20663;-73
2021/03/14 05:28:55;;;;;;;1.20;1.10;;;1.90;99.90;;;;;;5091630;28;20208;-73
2021/03/14 05:31:32;;;;;;;0.95;0.85;;;1.90;99.90;;;;;;5091475;28;20227;-72
2021/03/14 05:34:01;;;;;;;0.90;0.80;;;1.90;99.90;;;;;;5091052;28;20196;-73
2021/03/14 05:36:28;;;;;;;1.65;0.80;;;1.90;99.90;;;;;;5091606;28;20206;-73
2021/03/14 05:38:56;;;;;;;4.60;0.95;;;1.80;99.90;;;;;;5091455;28;20208;-73
2021/03/14 05:41:22;;;;;;;1.20;1.00;;;1.90;99.90;;;;;;5091386;28;20637;-73
2021/03/14 05:43:49;;;;;;;1.10;1.00;;;1.90;99.90;;;;;;5090809;28;20551;-73
2021/03/14 05:46:16;;;;;;;1.40;1.10;;;1.90;99.90;;;;;;5089303;28;20464;-70
2021/03/14 05:48:43;;;;;;;1.23;0.80;;;1.90;99.90;;;;;;5090248;28;20290;-73
2021/03/14 05:51:10;;;;;;;1.33;0.80;;;1.90;99.90;;;;;;5090497;28;20219;-71
2021/03/14 05:53:40;;;;;;;2.55;0.93;;;2.00;99.90;;;;;;5090847;28;20213;-71
2021/03/14 05:56:07;;;;;;;1.00;0.90;;;2.00;99.90;;;;;;5090182;28;20735;-71
2021/03/14 05:58:35;;;;;;;1.25;0.90;;;1.90;99.90;;;;;;5090546;28;20210;-69
2021/03/14 06:01:02;;;;;;;1.00;0.90;;;2.00;99.90;;;;;;5091324;28;20234;-73
2021/03/14 06:03:30;;;;;;;5.60;1.20;;;2.00;99.90;;;;;;5090788;28;20208;-72
2021/03/14 06:05:56;;;;;;;3.05;1.80;;;2.00;99.90;;;;;;5091278;28;20245;-71
2021/03/14 06:08:23;;;;;;;2.63;1.38;;;2.00;99.90;;;;;;5090640;28;20202;-71
2021/03/14 06:10:50;;;;;;;1.77;1.17;;;2.10;99.90;;;;;;5090401;28;20257;-73
2021/03/14 06:13:17;;;;;;;1.50;1.40;;;2.10;99.90;;;;;;5090570;28;21062;-71
2021/03/14 06:15:43;;;;;;;1.77;1.17;;;2.20;99.90;;;;;;5090972;28;20220;-71
2021/03/14 06:18:09;;;;;;;2.15;1.20;;;2.30;99.90;;;;;;5090882;28;20200;-71
2021/03/14 06:20:38;;;;;;;3.65;1.58;;;2.30;99.90;;;;;;5090173;28;20227;-71
2021/03/14 06:23:06;;;;;;;2.28;1.40;;;2.30;99.90;;;;;;5090926;28;20678;-72
2021/03/14 06:25:33;;;;;;;1.90;1.40;;;2.30;99.90;;;;;;5090351;28;20575;-72
2021/03/14 06:27:59;;;;;;;4.00;1.88;;;2.30;99.90;;;;;;5090738;28;20215;-72
2021/03/14 06:30:27;;;;;;;1.48;1.10;;;2.30;99.90;;;;;;5089760;28;20204;-72
2021/03/14 06:33:05;;;;;;;1.90;1.50;;;2.40;99.90;;;;;;5090591;28;20694;-72
2021/03/14 06:35:47;;;;;;;2.05;1.60;;;2.40;99.90;;;;;;5090226;28;20235;-71
2021/03/14 06:38:25;;;;;;;2.10;1.48;;;2.40;99.90;;;;;;5090506;28;20207;-71
2021/03/14 06:41:10;;;;;;;2.13;1.85;;;2.40;99.90;;;;;;5089909;28;20272;-72
2021/03/14 06:43:39;;;;;;;3.70;1.58;;;2.40;99.90;;;;;;5090232;28;20200;-71
2021/03/14 06:46:18;;;;;;;2.67;1.70;;;2.50;99.90;;;;;;5091012;28;20205;-71
2021/03/14 06:48:45;;;;;;;2.60;1.35;;;2.50;99.90;;;;;;5089615;28;20203;-72
2021/03/14 06:51:11;;;;;;;2.60;1.60;;;2.50;99.90;;;;;;5090206;28;20224;-72
2021/03/14 06:53:39;;;;;;;2.40;1.40;;;2.60;99.90;;;;;;5089091;28;20196;-72
2021/03/14 06:56:07;;;;;;;1.60;1.40;;;2.70;99.90;;;;;;5089308;28;20602;-72
2021/03/14 06:58:35;;;;;;;1.52;1.40;;;2.70;99.90;;;;;;5087396;28;20215;-72
2021/03/14 07:01:13;;;;;;;1.50;1.40;;;2.90;99.90;;;;;;5090328;28;20230;-71
2021/03/14 07:03:40;;;;;;;2.65;1.52;;;3.00;99.90;;;;;;5090510;28;20573;-71
2021/03/14 07:06:21;;;;;;;1.90;1.70;;;3.00;99.90;;;;;;5090214;28;20195;-73
2021/03/14 07:08:49;;;;;;;3.60;1.73;;;3.10;99.90;;;;;;5090017;28;20198;-71
2021/03/14 07:11:34;;;;;;;3.22;1.98;;;3.10;99.90;;;;;;5089946;28;20227;-72
2021/03/14 07:14:02;;;;;;;1.92;1.50;;;3.10;99.90;;;;;;5089410;28;20199;-72
2021/03/14 07:16:45;;;;;;;3.80;1.60;;;3.30;99.90;;;;;;5089618;28;20784;-72
2021/03/14 07:19:15;;;;;;;2.53;1.90;;;3.50;99.90;;;;;;5088635;28;20208;-72
2021/03/14 07:21:41;;;;;;;4.68;1.58;;;3.80;99.90;;;;;;5089727;28;20638;-72
2021/03/14 07:24:12;;;;;;;2.20;1.90;;;4.00;99.90;;;;;;5086574;28;20207;-71
2021/03/14 07:26:43;;;;;;;2.83;1.35;;;3.90;99.90;;;;;;5088688;28;20207;-72
2021/03/14 07:29:10;;;;;;;2.70;1.80;;;3.90;99.90;;;;;;5088736;28;20200;-72
2021/03/14 07:31:36;;;;;;;2.00;1.80;;;3.90;99.90;;;;;;5089049;28;20223;-72
2021/03/14 07:34:04;;;;;;;2.67;1.23;;;4.00;99.90;;;;;;5089735;28;20204;-71
2021/03/14 07:36:30;;;;;;;1.98;1.50;;;4.20;99.90;;;;;;5132815;22;20207;-92
2021/03/14 07:38:57;;;;;;;2.92;1.60;;;4.40;99.90;;;;;;5114728;28;20203;-91
2021/03/14 07:41:25;;;;;;;2.30;1.73;;;4.40;99.90;;;;;;5116144;28;20208;-93
2021/03/14 07:43:53;;;;;;;4.65;2.35;;;4.60;99.90;;;;;;5107502;28;20204;-93
2021/03/14 07:46:24;;;;;;;3.35;2.30;;;5.10;99.90;;;;;;5115941;28;20427;-93
2021/03/14 07:48:52;;;;;;;3.15;1.40;;;5.20;99.90;;;;;;5116130;28;20215;-93
2021/03/14 07:51:22;;;;;;;3.78;1.88;;;5.00;99.90;;;;;;5116584;28;20203;-94
2021/03/14 07:53:49;;;;;;;2.00;1.50;;;4.80;99.90;;;;;;5116896;28;20188;-92
2021/03/14 07:56:16;;;;;;;3.05;1.50;;;4.40;99.90;;;;;;5116103;28;20269;-93
2021/03/14 07:58:43;;;;;;;2.45;1.50;;;4.10;99.90;;;;;;5114983;28;20227;-92
2021/03/14 08:01:23;;;;;;;3.53;1.70;;;3.80;99.90;;;;;;5114863;28;20211;-92
2021/03/14 08:03:50;;;;;;;3.72;1.70;;;3.60;99.90;;;;;;5106871;28;20720;-92
2021/03/14 08:06:16;;;;;;;2.88;1.60;;;3.50;99.90;;;;;;5103270;28;20226;-91
2021/03/14 08:08:49;;;;;;;2.08;1.70;;;3.40;99.90;;;;;;5105163;28;20250;-92
2021/03/14 08:11:27;;;;;;;1.45;1.35;;;3.30;99.90;;;;;;5107740;28;20206;-92
2021/03/14 08:13:56;;;;;;;2.45;1.83;;;3.30;99.90;;;;;;5104702;28;20200;-93
2021/03/14 08:16:24;;;;;;;4.55;1.92;;;3.40;99.90;;;;;;5110038;28;20258;-92
2021/03/14 08:18:54;;;;;;;2.25;1.95;;;3.50;99.90;;;;;;5112413;28;20195;-92
2021/03/14 08:21:37;;;;;;;3.45;1.65;;;3.60;99.90;;;;;;5103372;28;20209;-93
2021/03/14 08:24:08;;;;;;;4.50;2.25;;;4.00;99.90;;;;;;5089345;28;20196;-91
2021/03/14 08:26:36;;;;;;;2.13;1.48;;;4.50;99.90;;;;;;5091577;28;20267;-92
2021/03/14 08:29:04;;;;;;;2.28;1.60;;;4.90;99.90;;;;;;5092511;28;20196;-92
2021/03/14 08:31:39;;;;;;;2.85;1.90;;;5.20;99.90;;;;;;5092363;28;20200;-92
2021/03/14 08:34:06;;;;;;;3.47;1.55;;;5.40;99.90;;;;;;5096032;28;20199;-92
2021/03/14 08:36:34;;;;;;;4.15;1.48;;;5.50;99.90;;;;;;5089089;28;20611;-93
2021/03/14 08:39:01;;;;;;;2.72;1.42;;;5.60;99.90;;;;;;5088276;28;20206;-93
2021/03/14 08:41:35;;;;;;;4.43;1.67;;;5.60;99.90;;;;;;5089016;28;20208;-93
2021/03/14 08:44:05;;;;;;;1.90;1.48;;;5.70;99.90;;;;;;5089000;28;20302;-93
2021/03/14 08:47:06;;;;;;;2.78;1.55;;;6.40;99.90;;;;;;5088397;28;20239;-93
2021/03/14 08:49:37;;;;;;;3.05;1.50;;;7.50;99.90;;;;;;5090290;28;20745;-93
2021/03/14 08:52:12;;;;;;;5.90;2.13;;;7.70;99.90;;;;;;5089736;28;20201;-93
2021/03/14 08:54:41;;;;;;;2.70;1.20;;;7.60;99.90;;;;;;5087602;28;20226;-93
2021/03/14 08:57:09;;;;;;;4.45;2.05;;;7.50;99.90;;;;;;5088668;28;20188;-92
2021/03/14 08:59:36;;;;;;;2.17;1.40;;;7.10;99.90;;;;;;5089809;28;20200;-93
2021/03/14 09:02:04;;;;;;;8.50;1.63;;;6.80;99.90;;;;;;5087085;28;20204;-92
2021/03/14 09:04:33;;;;;;;5.05;2.10;;;6.40;99.90;;;;;;5085239;28;20250;-92
2021/03/14 09:07:10;;;;;;;2.25;1.50;;;6.00;99.90;;;;;;5086592;28;20212;-92
2021/03/14 09:10:20;;;;;;;2.50;1.52;;;5.90;99.90;;;;;;5086004;28;20208;-92
2021/03/14 09:12:59;;;;;;;2.25;1.50;;;5.80;99.90;;;;;;5085259;28;20311;-93
2021/03/14 09:15:25;;;;;;;2.50;1.10;;;5.60;99.90;;;;;;5085466;28;20244;-93
2021/03/14 09:17:56;;;;;;;5.25;1.70;;;5.60;99.90;;;;;;5085699;28;20215;-93
2021/03/14 09:20:24;;;;;;;1.60;1.45;;;5.60;99.90;;;;;;5089978;28;20204;-93
2021/03/14 09:22:51;;;;;;;4.20;1.30;;;5.50;99.90;;;;;;5093487;28;20254;-93
2021/03/14 09:25:18;;;;;;;2.08;1.40;;;5.50;99.90;;;;;;5086583;28;20231;-93
2021/03/14 09:27:57;;;;;;;2.92;1.50;;;5.60;99.90;;;;;;5085258;28;20254;-93
2021/03/14 09:30:24;;;;;;;1.40;1.30;;;5.70;99.90;;;;;;5087073;28;20196;-92
2021/03/14 09:32:52;;;;;;;2.15;1.20;;;5.70;99.90;;;;;;5087703;28;20234;-91
2021/03/14 09:35:21;;;;;;;3.05;1.20;;;5.60;99.90;;;;;;5086111;28;20224;-93
2021/03/14 09:37:51;;;;;;;2.10;1.30;;;5.40;99.90;;;;;;5086452;28;20280;-92
2021/03/14 09:40:29;;;;;;;2.28;1.23;;;5.30;99.90;;;;;;5097347;28;20180;-92
2021/03/14 09:43:08;;;;;;;3.78;1.60;;;5.20;99.90;;;;;;5098699;28;20187;-91
2021/03/14 09:45:36;;;;;;;3.85;1.42;;;5.10;99.90;;;;;;5097570;28;20200;-91
2021/03/14 09:50:47;;;;;;;3.45;1.27;;;7.50;99.90;;;;;;5102244;28;20246;-69
2021/03/14 09:53:15;;;;;;;1.80;1.20;;;10.50;99.90;;;;;;5078735;28;20204;-70
2021/03/14 09:55:43;;;;;;;3.05;1.67;;;13.00;97.10;;;;;;5071525;28;20227;-70
2021/03/14 09:58:12;;;;;;;3.50;1.20;;;14.80;95.40;;;;;;5071569;28;20200;-71
2021/03/14 10:00:38;;;;;;;4.03;1.20;;;15.60;90.70;;;;;;5076884;28;20212;-70
2021/03/14 10:03:09;;;;;;;4.53;1.63;;;14.90;90.60;;;;;;5078614;28;20200;-70
2021/03/14 10:05:44;;;;;;;2.50;1.42;;;12.80;91.70;;;;;;5070272;28;20224;-69
2021/03/14 10:08:16;;;;;;;2.88;1.30;;;11.40;93.00;;;;;;5083932;28;20195;-70
2021/03/14 10:10:43;;;;;;;3.28;1.42;;;10.10;94.40;;;;;;5089826;28;20216;-70
2021/03/14 10:13:09;;;;;;;5.40;1.25;;;9.20;95.50;;;;;;5090601;28;20196;-70
2021/03/14 10:15:40;;;;;;;2.78;1.50;;;8.50;97.00;;;;;;5089798;28;20215;-70
2021/03/14 10:18:07;;;;;;;2.40;1.20;;;7.90;97.00;;;;;;5090487;28;20203;-69
2021/03/14 10:20:37;;;;;;;2.55;1.05;;;7.50;97.50;;;;;;5089101;28;20775;-70
2021/03/14 10:23:06;;;;;;;1.70;1.20;;;7.10;98.60;;;;;;5083905;28;20204;-70
2021/03/14 10:25:35;;;;;;;1.80;1.40;;;6.90;99.40;;;;;;5072275;28;20192;-70
2021/03/14 10:28:13;;;;;;;1.40;1.30;;;6.60;99.80;;;;;;5089641;28;20210;-69
2021/03/14 10:30:42;;;;;;;1.77;1.10;;;6.40;99.90;;;;;;5086077;28;20224;-69
2021/03/14 10:33:09;;;;;;;2.88;1.35;;;6.30;99.90;;;;;;5067661;28;20252;-68
2021/03/14 10:35:38;;;;;;;2.65;1.33;;;6.20;99.90;;;;;;5070821;28;20235;-69
2021/03/14 10:38:22;;;;;;;2.05;1.23;;;6.20;99.90;;;;;;5072538;28;20192;-70
2021/03/14 10:40:50;;;;;;;2.25;1.15;;;6.00;99.90;;;;;;5072725;28;20223;-69
2021/03/14 10:43:21;;;;;;;2.40;1.20;;;5.90;99.90;;;;;;5068031;28;20208;-69
2021/03/14 10:45:49;;;;;;;1.40;1.10;;;5.90;99.90;;;;;;5074016;28;20199;-70
2021/03/14 10:48:18;;;;;;;1.85;1.13;;;6.00;99.90;;;;;;5068452;28;20208;-70
2021/03/14 10:50:44;;;;;;;2.35;1.00;;;6.20;99.90;;;;;;5070813;28;20314;-69
2021/03/14 10:53:13;;;;;;;1.48;1.08;;;6.20;99.90;;;;;;5066793;28;20205;-69
2021/03/14 10:55:41;;;;;;;1.27;0.90;;;6.20;99.90;;;;;;5066484;28;20946;-70
2021/03/14 10:58:12;;;;;;;4.68;1.35;;;6.50;99.90;;;;;;5067522;28;20208;-69
2021/03/14 11:00:44;;;;;;;1.80;1.20;;;7.10;99.70;;;;;;5063063;28;20247;-70
2021/03/14 11:03:32;;;;;;;3.40;1.30;;;7.50;99.00;;;;;;5072721;28;20220;-69
2021/03/14 11:06:16;;;;;;;2.08;1.05;;;8.10;99.00;;;;;;5065621;28;20224;-70
2021/03/14 11:08:51;;;;;;;2.00;1.20;;;9.10;97.50;;;;;;5069495;28;20246;-69
2021/03/14 11:11:19;;;;;;;1.90;1.38;;;11.20;96.20;;;;;;5067466;28;20239;-69
2021/03/14 11:13:47;;;;;;;1.75;1.30;;;12.80;92.50;;;;;;5066293;28;20228;-70
2021/03/14 11:16:13;;;;;;;2.97;1.33;;;12.50;91.40;;;;;;5063502;28;20681;-70
2021/03/14 11:18:40;;;;;;;1.42;1.00;;;11.90;91.10;;;;;;5064809;28;20202;-70
2021/03/14 11:21:10;;;;;;;1.30;1.00;;;11.30;91.20;;;;;;5065398;28;20216;-70
2021/03/14 11:23:36;;;;;;;4.68;1.40;;;10.40;90.60;;;;;;5068433;28;20197;-70
2021/03/14 11:26:03;;;;;;;2.15;1.20;;;9.60;92.00;;;;;;5066729;28;20192;-69
2021/03/14 11:28:29;;;;;;;3.13;1.25;;;8.90;93.00;;;;;;5063279;28;20781;-70
2021/03/14 11:30:58;;;;;;;2.15;1.52;;;8.80;94.30;;;;;;5065679;28;20228;-70
2021/03/14 11:33:25;;;;;;;4.50;1.30;;;9.20;93.60;;;;;;5063054;28;20207;-70
2021/03/14 11:35:52;;;;;;;2.92;1.10;;;10.40;91.00;;;;;;5066369;28;20833;-70
2021/03/14 11:38:21;;;;;;;1.65;1.30;;;10.80;90.30;;;;;;5069589;28;20197;-70
2021/03/14 11:40:56;;;;;;;2.20;1.40;;;11.10;90.80;;;;;;5069891;28;20220;-68
2021/03/14 11:43:22;;;;;;;2.58;1.40;;;10.80;90.60;;;;;;5066528;28;20196;-69
2021/03/14 11:45:50;;;;;;;5.53;1.65;;;10.00;90.10;;;;;;5067072;28;20196;-70
2021/03/14 11:48:18;;;;;;;2.90;0.98;;;9.30;92.00;;;;;;5070020;28;20280;-70
2021/03/14 11:50:45;;;;;;;4.38;1.95;;;9.60;91.90;;;;;;5070026;28;20280;-68
2021/03/14 11:53:11;;;;;;;4.47;1.75;;;9.50;92.00;;;;;;5066614;28;20253;-68
2021/03/14 11:55:38;;;;;;;2.92;1.25;;;9.30;91.30;;;;;;5072360;28;20255;-69
2021/03/14 11:58:04;;;;;;;2.60;1.58;;;8.90;91.80;;;;;;5082354;28;20204;-70
2021/03/14 12:00:31;;;;;;;5.55;1.30;;;8.90;92.80;;;;;;5079206;28;20228;-69
2021/03/14 12:02:57;;;;;;;2.25;1.45;;;8.70;92.80;;;;;;5063510;28;20204;-69
2021/03/14 12:05:24;;;;;;;1.75;1.15;;;8.50;92.80;;;;;;5080134;28;20698;-67
2021/03/14 12:07:51;;;;;;;3.10;1.90;;;8.10;93.40;;;;;;5083300;28;20608;-69
2021/03/14 12:10:17;;;;;;;4.60;1.30;;;7.80;94.00;;;;;;5067166;28;20670;-70
2021/03/14 12:12:44;;;;;;;3.70;1.30;;;7.40;95.30;;;;;;5078824;28;20287;-69
2021/03/14 12:15:11;;;;;;;2.50;1.40;;;7.10;96.40;;;;;;5071070;28;20220;-68
2021/03/14 12:17:38;;;;;;;2.38;1.50;;;7.00;97.30;;;;;;5070147;28;20200;-69
2021/03/14 12:20:06;;;;;;;2.85;1.30;;;6.80;98.30;;;;;;5076655;28;20203;-68
2021/03/14 12:22:33;;;;;;;4.63;1.55;;;6.70;98.70;;;;;;5070449;28;20215;-70
2021/03/14 12:24:59;;;;;;;4.88;1.65;;;6.50;99.40;;;;;;5080190;28;20214;-69
2021/03/14 12:27:25;;;;;;;1.80;1.20;;;6.20;99.90;;;;;;5078074;28;20208;-69
2021/03/14 12:29:52;;;;;;;4.68;1.30;;;6.00;99.90;;;;;;5073591;28;20365;-68
2021/03/14 12:32:18;;;;;;;2.38;1.50;;;6.00;99.90;;;;;;5070737;28;20592;-70
2021/03/14 12:34:44;;;;;;;1.85;1.20;;;5.80;99.90;;;;;;5078891;28;20223;-69
2021/03/14 12:37:11;;;;;;;2.03;1.45;;;5.80;99.90;;;;;;5073670;28;21006;-70
2021/03/14 12:39:38;;;;;;;3.30;2.33;;;5.70;99.90;;;;;;5076233;28;20207;-69
2021/03/14 12:42:05;;;;;;;3.45;1.70;;;5.60;99.90;;;;;;5076835;28;20241;-69
2021/03/14 12:44:33;;;;;;;2.55;1.50;;;5.50;99.90;;;;;;5077407;28;20206;-69
2021/03/14 12:47:00;;;;;;;6.90;2.00;;;5.50;99.90;;;;;;5072585;28;20302;-70
2021/03/14 12:49:26;;;;;;;2.15;1.60;;;5.30;99.90;;;;;;5069576;28;20235;-69
2021/03/14 12:51:52;;;;;;;4.00;1.70;;;5.30;99.90;;;;;;5067903;28;20223;-70
2021/03/14 12:54:19;;;;;;;4.65;1.40;;;5.20;99.90;;;;;;5073706;28;20214;-69
2021/03/14 12:56:46;;;;;;;3.70;1.90;;;5.10;99.90;;;;;;5070962;28;20243;-69
2021/03/14 12:59:12;;;;;;;3.92;1.38;;;5.00;99.90;;;;;;5069101;28;20192;-70
2021/03/14 13:01:39;;;;;;;3.80;1.98;;;4.60;99.90;;;;;;5068254;28;20212;-68
2021/03/14 13:04:05;;;;;;;1.75;1.35;;;4.50;99.90;;;;;;5070240;28;20906;-69
2021/03/14 13:06:32;;;;;;;4.10;1.70;;;4.40;99.90;;;;;;5068457;28;20201;-69
2021/03/14 13:09:00;;;;;;;2.97;1.50;;;4.30;99.90;;;;;;5070198;28;20204;-69
2021/03/14 13:11:26;;;;;;;3.40;1.88;;;4.30;99.90;;;;;;5065716;28;20220;-70
2021/03/14 13:13:53;;;;;;;5.25;1.67;;;4.30;99.90;;;;;;5070513;28;20219;-69
2021/03/14 13:16:19;;;;;;;5.07;2.20;;;4.30;99.90;;;;;;5069773;28;20220;-69
2021/03/14 13:18:47;;;;;;;6.20;2.42;;;4.40;99.90;;;;;;5068566;28;20201;-67